Time;durP1;ratioP1;P1;durP2;ratioP2;P2;SDS_P1;SDS_P2;PMS_P1;PMS_P2;Temp;Humidity;BMP_temperature;BMP_pressure;BME280_temperature;BME280_humidity;BME280_pressure;Samples;Min_cycle;Max_cycle;Signal;HPM_P1;HPM_P2
2022/01/15 00:01:15;;;;;;;17.05;5.75;;;6.80;96.60;;;;;;5033128;28;20067;-65
2022/01/15 00:03:41;;;;;;;18.77;5.35;;;6.80;96.60;;;;;;5031669;28;20087;-65
2022/01/15 00:06:06;;;;;;;27.05;6.57;;;6.80;96.60;;;;;;5033418;28;20030;-65
2022/01/15 00:08:32;;;;;;;23.23;5.65;;;6.80;96.60;;;;;;5018291;28;20121;-65
2022/01/15 00:10:57;;;;;;;22.60;6.63;;;6.70;96.60;;;;;;5012590;28;20029;-65
2022/01/15 00:13:30;;;;;;;22.20;4.97;;;6.70;96.60;;;;;;5038859;28;20034;-65
2022/01/15 00:16:07;;;;;;;19.67;5.35;;;6.70;96.60;;;;;;5032843;28;20018;-65
2022/01/15 00:18:42;;;;;;;23.95;6.38;;;6.60;96.70;;;;;;5032209;28;20037;-65
2022/01/15 00:21:09;;;;;;;23.33;4.80;;;6.60;96.70;;;;;;5033361;28;20029;-66
2022/01/15 00:23:35;;;;;;;21.23;5.47;;;6.60;96.70;;;;;;5030695;28;20045;-64
2022/01/15 00:26:00;;;;;;;19.35;4.45;;;6.60;96.70;;;;;;5021649;28;20022;-65
2022/01/15 00:28:26;;;;;;;21.75;5.80;;;6.60;96.70;;;;;;5025228;28;20124;-65
2022/01/15 00:30:51;;;;;;;19.50;4.60;;;6.50;96.90;;;;;;5024843;28;20124;-65
2022/01/15 00:33:17;;;;;;;19.25;4.40;;;6.50;96.80;;;;;;5012812;28;20504;-65
2022/01/15 00:35:42;;;;;;;23.23;4.68;;;6.50;96.80;;;;;;5021488;28;20029;-65
2022/01/15 00:38:07;;;;;;;16.27;4.93;;;6.50;96.70;;;;;;5031022;28;20544;-65
2022/01/15 00:40:33;;;;;;;20.45;4.85;;;6.50;96.80;;;;;;5031652;28;20033;-67
2022/01/15 00:42:59;;;;;;;17.42;5.63;;;6.50;96.80;;;;;;5029627;28;20077;-66
2022/01/15 00:45:25;;;;;;;19.67;6.03;;;6.50;96.80;;;;;;5032884;28;20034;-66
2022/01/15 00:47:52;;;;;;;21.60;6.15;;;6.40;96.90;;;;;;5028481;28;20037;-66
2022/01/15 00:50:19;;;;;;;17.42;5.90;;;6.40;96.80;;;;;;5024544;28;20037;-66
2022/01/15 00:52:44;;;;;;;18.45;5.78;;;6.40;96.90;;;;;;5017620;28;20069;-66
2022/01/15 00:55:12;;;;;;;20.77;6.90;;;6.40;96.90;;;;;;5031583;28;20068;-67
2022/01/15 00:57:38;;;;;;;19.00;5.40;;;6.40;96.90;;;;;;5029488;28;20034;-66
2022/01/15 01:00:07;;;;;;;21.10;6.40;;;6.40;96.90;;;;;;5031301;28;20049;-66
2022/01/15 01:02:32;;;;;;;21.40;5.45;;;6.40;96.90;;;;;;5029710;28;20045;-66
2022/01/15 01:04:58;;;;;;;19.13;5.45;;;6.40;96.80;;;;;;5013074;28;20209;-66
2022/01/15 01:07:23;;;;;;;19.15;7.10;;;6.40;96.80;;;;;;5012218;28;20029;-66
2022/01/15 01:20:56;;;;;;;18.70;4.78;;;6.20;97.00;;;;;;5021354;28;19909;-66
2022/01/15 01:23:23;;;;;;;21.05;6.25;;;6.20;97.00;;;;;;5021928;28;20041;-66
2022/01/15 01:25:53;;;;;;;23.02;5.22;;;6.20;97.00;;;;;;5031725;28;20040;-66
2022/01/15 01:28:29;;;;;;;19.38;5.18;;;6.30;97.10;;;;;;5019189;28;20038;-66
2022/01/15 01:31:01;;;;;;;18.55;4.70;;;6.30;97.10;;;;;;5012384;28;20029;-66
2022/01/15 01:33:33;;;;;;;14.75;4.53;;;6.30;97.10;;;;;;5013625;28;20022;-66
2022/01/15 01:36:10;;;;;;;24.73;4.32;;;6.20;97.00;;;;;;5011740;28;20037;-66
2022/01/15 01:38:55;;;;;;;18.67;5.07;;;6.20;97.10;;;;;;5025947;28;20121;-66
2022/01/15 01:41:22;;;;;;;19.45;4.28;;;6.20;97.10;;;;;;5015253;28;20029;-66
2022/01/15 01:43:57;;;;;;;14.75;4.10;;;6.30;97.10;;;;;;5016655;28;20068;-66
2022/01/15 01:48:49;;;;;;;16.35;3.75;;;6.30;97.10;;;;;;5020247;28;20034;-66
2022/01/15 01:51:23;;;;;;;19.13;4.78;;;6.30;97.10;;;;;;5011260;28;20479;-66
2022/01/15 01:53:49;;;;;;;20.40;4.22;;;6.30;97.10;;;;;;5028295;28;20029;-66
2022/01/15 01:56:15;;;;;;;16.80;3.47;;;6.30;97.10;;;;;;5031202;28;20048;-66
2022/01/15 01:58:41;;;;;;;20.00;4.25;;;6.30;97.10;;;;;;5025074;28;20030;-66
2022/01/15 02:01:06;;;;;;;17.30;3.80;;;6.30;97.20;;;;;;5030824;28;20110;-66
2022/01/15 02:03:32;;;;;;;17.20;4.43;;;6.30;97.20;;;;;;5024502;28;20118;-66
2022/01/15 02:05:58;;;;;;;19.13;5.88;;;6.30;97.20;;;;;;5029463;28;20480;-66
2022/01/15 02:08:23;;;;;;;21.25;4.18;;;6.30;97.30;;;;;;5030337;28;20071;-66
2022/01/15 02:10:50;;;;;;;21.65;4.82;;;6.30;97.30;;;;;;5030812;28;20029;-66
2022/01/15 02:13:15;;;;;;;13.98;3.97;;;6.20;97.30;;;;;;5024208;28;20477;-66
2022/01/15 02:15:41;;;;;;;14.15;4.03;;;6.20;97.40;;;;;;5013670;28;20033;-66
2022/01/15 02:18:07;;;;;;;17.58;4.07;;;6.20;97.50;;;;;;5023487;28;20033;-66
2022/01/15 02:25:53;;;;;;;15.85;4.50;;;6.10;97.60;;;;;;5018994;28;20064;-66
2022/01/15 02:28:22;;;;;;;15.90;4.38;;;6.10;97.70;;;;;;5018684;28;20119;-66
2022/01/15 02:30:53;;;;;;;19.30;4.20;;;6.10;97.70;;;;;;5018932;28;20069;-66
2022/01/15 02:33:19;;;;;;;18.70;4.22;;;6.10;97.70;;;;;;5017819;28;20032;-66
2022/01/15 02:35:44;;;;;;;17.73;3.92;;;6.10;97.70;;;;;;5019274;28;20034;-66
2022/01/15 02:38:12;;;;;;;16.10;3.95;;;6.10;97.70;;;;;;5017221;28;20112;-66
2022/01/15 02:40:38;;;;;;;18.77;4.20;;;6.10;97.70;;;;;;5021926;28;20030;-66
2022/01/15 02:43:11;;;;;;;16.15;5.10;;;6.10;97.80;;;;;;5015846;28;20598;-66
2022/01/15 02:45:41;;;;;;;19.45;4.97;;;6.10;97.80;;;;;;5021615;28;20030;-65
2022/01/15 02:48:14;;;;;;;23.13;4.35;;;6.10;97.90;;;;;;5016406;28;20044;-65
2022/01/15 02:50:41;;;;;;;23.33;4.70;;;6.10;97.90;;;;;;5020827;28;20099;-65
2022/01/15 02:53:08;;;;;;;18.60;4.88;;;6.10;97.90;;;;;;5022641;28;20080;-66
2022/01/15 02:55:34;;;;;;;15.93;4.82;;;6.10;97.90;;;;;;5011074;28;20026;-65
2022/01/15 02:57:59;;;;;;;17.15;4.18;;;6.10;97.90;;;;;;5015792;28;20029;-66
2022/01/15 03:00:26;;;;;;;17.92;5.00;;;6.10;98.00;;;;;;5023895;28;20128;-65
2022/01/15 03:02:52;;;;;;;17.33;4.63;;;6.00;98.00;;;;;;5020855;28;20030;-65
2022/01/15 03:05:20;;;;;;;18.77;4.05;;;6.00;98.10;;;;;;5026213;28;20033;-65
2022/01/15 03:07:45;;;;;;;22.52;5.25;;;6.00;98.10;;;;;;5013793;28;20034;-65
2022/01/15 03:10:11;;;;;;;20.65;4.20;;;6.00;98.10;;;;;;5030572;28;20507;-65
2022/01/15 03:12:37;;;;;;;13.60;3.28;;;6.00;98.20;;;;;;5029149;28;20037;-65
2022/01/15 03:15:05;;;;;;;16.17;4.00;;;6.00;98.20;;;;;;5012093;28;20100;-65
2022/01/15 03:17:32;;;;;;;22.38;4.22;;;6.00;98.30;;;;;;5014801;28;20033;-66
2022/01/15 03:19:57;;;;;;;19.55;4.10;;;5.90;98.30;;;;;;5015048;28;20033;-64
2022/01/15 03:22:23;;;;;;;23.77;4.70;;;5.90;98.30;;;;;;5014697;28;20048;-65
2022/01/15 03:24:50;;;;;;;19.55;4.32;;;5.90;98.20;;;;;;5033960;28;20030;-65
2022/01/15 03:27:15;;;;;;;19.23;4.50;;;5.90;98.30;;;;;;5029995;28;20040;-65
2022/01/15 03:29:41;;;;;;;13.88;4.38;;;6.00;98.30;;;;;;5020453;28;20026;-65
2022/01/15 03:32:07;;;;;;;19.67;4.70;;;6.00;98.40;;;;;;5013318;28;20049;-65
2022/01/15 03:34:32;;;;;;;26.35;4.40;;;5.90;98.40;;;;;;5031119;28;20033;-66
2022/01/15 03:36:58;;;;;;;20.85;4.20;;;5.90;98.40;;;;;;5033560;28;20559;-65
2022/01/15 03:39:23;;;;;;;17.17;4.07;;;5.90;98.30;;;;;;5016234;28;20038;-65
2022/01/15 03:41:49;;;;;;;23.30;5.25;;;5.90;98.40;;;;;;5014196;28;20487;-65
2022/01/15 03:44:14;;;;;;;17.80;4.55;;;5.90;98.40;;;;;;5020282;28;20034;-65
2022/01/15 03:46:40;;;;;;;19.60;5.60;;;5.80;98.40;;;;;;5027328;28;20063;-66
2022/01/15 03:49:06;;;;;;;24.02;4.78;;;5.80;98.40;;;;;;5032232;28;20109;-66
2022/01/15 03:51:31;;;;;;;18.45;4.40;;;5.80;98.40;;;;;;5033640;28;20427;-65
2022/01/15 03:53:56;;;;;;;21.00;4.72;;;5.80;98.40;;;;;;5031910;28;20488;-66
2022/01/15 03:56:22;;;;;;;18.15;4.53;;;5.80;98.50;;;;;;5033554;28;20032;-65
2022/01/15 03:58:47;;;;;;;22.20;4.72;;;5.70;98.40;;;;;;5026927;28;20051;-66
2022/01/15 04:01:13;;;;;;;18.15;5.20;;;5.70;98.50;;;;;;5030855;28;20049;-66
2022/01/15 04:03:39;;;;;;;18.38;4.55;;;5.70;98.60;;;;;;5031786;28;20034;-66
2022/01/15 04:06:04;;;;;;;23.23;5.80;;;5.70;98.60;;;;;;5024299;28;20018;-66
2022/01/15 04:08:30;;;;;;;21.15;5.25;;;5.70;98.60;;;;;;5023160;28;20355;-65
2022/01/15 04:10:56;;;;;;;18.13;4.53;;;5.70;98.60;;;;;;5026948;28;20640;-67
2022/01/15 04:13:21;;;;;;;17.55;4.45;;;5.70;98.70;;;;;;5022842;28;20029;-66
2022/01/15 04:15:52;;;;;;;16.77;4.60;;;5.70;98.60;;;;;;5028808;28;20026;-65
2022/01/15 04:18:20;;;;;;;17.45;3.97;;;5.70;98.60;;;;;;5020792;28;20365;-65
2022/01/15 04:20:45;;;;;;;19.30;5.22;;;5.70;98.60;;;;;;5030450;28;20105;-66
2022/01/15 04:23:12;;;;;;;17.30;4.38;;;5.70;98.70;;;;;;5019476;28;20116;-65
2022/01/15 04:25:37;;;;;;;21.92;5.15;;;5.70;98.70;;;;;;5033363;28;20021;-66
2022/01/15 04:28:08;;;;;;;18.50;6.07;;;5.70;98.60;;;;;;5021762;28;20018;-66
2022/01/15 04:30:33;;;;;;;18.42;4.85;;;5.60;98.70;;;;;;5013460;28;20033;-66
2022/01/15 04:32:59;;;;;;;18.42;4.55;;;5.60;98.70;;;;;;5018249;28;20388;-65
2022/01/15 04:35:24;;;;;;;19.65;5.75;;;5.60;98.70;;;;;;5014179;28;20092;-66
2022/01/15 04:37:54;;;;;;;25.80;5.60;;;5.60;98.70;;;;;;5017770;28;20025;-65
2022/01/15 04:40:19;;;;;;;23.48;4.82;;;5.70;98.70;;;;;;5016007;28;20034;-66
2022/01/15 04:42:45;;;;;;;16.67;4.40;;;5.70;98.80;;;;;;5016605;28;20041;-66
2022/01/15 04:45:12;;;;;;;22.33;5.25;;;5.70;98.80;;;;;;5017923;28;20469;-65
2022/01/15 04:47:38;;;;;;;20.67;5.03;;;5.60;98.80;;;;;;5015153;28;20033;-66
2022/01/15 04:50:07;;;;;;;20.35;4.57;;;5.70;98.90;;;;;;5031824;28;20025;-66
2022/01/15 04:52:34;;;;;;;17.27;4.85;;;5.70;98.90;;;;;;5028718;28;20038;-65
2022/01/15 04:55:01;;;;;;;20.13;5.40;;;5.60;98.80;;;;;;5027312;28;20022;-65
2022/01/15 04:57:26;;;;;;;21.17;5.28;;;5.70;98.90;;;;;;5031279;28;20064;-65
2022/01/15 04:59:52;;;;;;;21.25;5.18;;;5.70;98.80;;;;;;5026907;28;20072;-65
2022/01/15 05:02:17;;;;;;;16.55;5.05;;;5.70;98.80;;;;;;5015580;28;20458;-65
2022/01/15 05:04:43;;;;;;;22.25;5.28;;;5.70;98.80;;;;;;5023405;28;20029;-65
2022/01/15 05:07:08;;;;;;;16.63;4.53;;;5.70;98.80;;;;;;5012442;28;20542;-65
2022/01/15 05:09:34;;;;;;;21.80;4.78;;;5.70;98.80;;;;;;5023401;28;20033;-65
2022/01/15 05:12:09;;;;;;;18.80;4.43;;;5.70;98.90;;;;;;5012744;28;20044;-65
2022/01/15 05:14:34;;;;;;;19.50;5.70;;;5.70;99.00;;;;;;5017091;28;20080;-65
2022/01/15 05:17:02;;;;;;;17.30;4.88;;;5.70;99.00;;;;;;5012263;28;20122;-65
2022/01/15 05:19:28;;;;;;;18.85;4.35;;;5.80;98.90;;;;;;5019386;28;20033;-66
2022/01/15 05:21:57;;;;;;;16.08;4.68;;;5.80;98.90;;;;;;5016115;28;20168;-65
2022/01/15 05:24:26;;;;;;;16.95;4.25;;;5.80;98.80;;;;;;5026236;28;20104;-66
2022/01/15 05:26:52;;;;;;;23.40;4.93;;;5.90;98.80;;;;;;5031064;28;20033;-66
2022/01/15 05:29:18;;;;;;;19.35;5.47;;;5.90;98.80;;;;;;5012621;28;20481;-65
2022/01/15 05:31:43;;;;;;;20.60;5.68;;;6.00;98.80;;;;;;5010701;28;20021;-66
2022/01/15 05:34:10;;;;;;;26.75;7.05;;;6.00;98.80;;;;;;5017752;28;20029;-65
2022/01/15 05:36:36;;;;;;;25.80;7.40;;;6.00;98.80;;;;;;5031522;28;20476;-65
2022/01/15 05:39:01;;;;;;;22.75;6.88;;;6.00;98.70;;;;;;5027227;28;20037;-65
2022/01/15 05:41:28;;;;;;;22.52;8.93;;;6.00;98.60;;;;;;5029480;28;20033;-65
2022/01/15 05:43:53;;;;;;;20.77;7.65;;;6.00;98.60;;;;;;5029418;28;20040;-65
2022/01/15 05:46:19;;;;;;;24.60;8.23;;;6.00;98.60;;;;;;5030379;28;20029;-66
2022/01/15 05:48:44;;;;;;;23.05;7.90;;;6.00;98.60;;;;;;5020340;28;20045;-66
2022/01/15 05:51:10;;;;;;;16.98;6.80;;;6.00;98.70;;;;;;5014510;28;20101;-66
2022/01/15 05:53:35;;;;;;;24.70;7.00;;;6.00;98.60;;;;;;5012288;28;20035;-66
2022/01/15 05:56:00;;;;;;;26.00;9.25;;;6.00;98.60;;;;;;5011559;28;20057;-66
2022/01/15 05:58:26;;;;;;;18.90;7.30;;;5.90;98.40;;;;;;5019690;28;20552;-66
2022/01/15 06:00:51;;;;;;;18.67;6.57;;;5.80;98.50;;;;;;5030600;28;20041;-66
2022/01/15 06:03:17;;;;;;;24.45;7.50;;;5.80;98.50;;;;;;5026345;28;20037;-66
2022/01/15 06:05:42;;;;;;;15.82;6.55;;;5.80;98.50;;;;;;5030604;28;20020;-66
2022/01/15 06:08:08;;;;;;;17.75;7.22;;;5.80;98.60;;;;;;5017156;28;20120;-66
2022/01/15 06:10:34;;;;;;;26.48;9.27;;;5.80;98.50;;;;;;5031300;28;20021;-66
2022/01/15 06:13:00;;;;;;;21.33;7.20;;;5.80;98.50;;;;;;5021704;28;20112;-66
2022/01/15 06:15:25;;;;;;;18.13;5.85;;;5.70;98.50;;;;;;5012575;28;20101;-66
2022/01/15 06:17:51;;;;;;;18.70;6.50;;;5.70;98.50;;;;;;5029936;28;20013;-65
2022/01/15 06:20:16;;;;;;;21.67;7.03;;;5.70;98.50;;;;;;5029948;28;20431;-66
2022/01/15 06:22:42;;;;;;;19.30;7.45;;;5.60;98.40;;;;;;5014837;28;20036;-65
2022/01/15 06:25:08;;;;;;;24.13;7.65;;;5.60;98.50;;;;;;5031126;28;20092;-65
2022/01/15 06:27:34;;;;;;;26.65;7.55;;;5.60;98.60;;;;;;5016908;28;20084;-66
2022/01/15 06:30:00;;;;;;;23.80;9.15;;;5.60;98.60;;;;;;5031111;28;20026;-64
2022/01/15 06:32:27;;;;;;;25.88;8.75;;;5.60;98.60;;;;;;5027599;28;20408;-66
2022/01/15 06:34:53;;;;;;;22.45;9.00;;;5.60;98.60;;;;;;5019624;28;20435;-66
2022/01/15 06:37:19;;;;;;;28.85;8.52;;;5.60;98.60;;;;;;5017313;28;20042;-65
2022/01/15 06:39:45;;;;;;;25.20;9.40;;;5.70;98.70;;;;;;5031019;28;20041;-66
2022/01/15 06:42:11;;;;;;;27.70;9.00;;;5.70;98.60;;;;;;5022171;28;20582;-66
2022/01/15 06:44:36;;;;;;;31.02;9.80;;;5.60;98.60;;;;;;5028336;28;20029;-66
2022/01/15 06:47:02;;;;;;;27.13;9.80;;;5.70;98.60;;;;;;5024477;28;20032;-66
2022/01/15 06:49:27;;;;;;;31.77;9.13;;;5.70;98.60;;;;;;5028763;28;20535;-66
2022/01/15 06:51:53;;;;;;;25.65;8.77;;;5.70;98.60;;;;;;5020185;28;20366;-66
2022/01/15 06:54:18;;;;;;;27.65;9.57;;;5.70;98.80;;;;;;5030953;28;20041;-66
2022/01/15 06:56:44;;;;;;;24.10;8.07;;;5.70;98.50;;;;;;5032461;28;20021;-66
2022/01/15 06:59:10;;;;;;;23.60;8.27;;;5.70;98.50;;;;;;5021315;28;20540;-65
2022/01/15 07:01:35;;;;;;;26.60;9.35;;;5.70;98.50;;;;;;5032208;28;20452;-66
2022/01/15 07:04:01;;;;;;;25.48;9.82;;;5.70;98.50;;;;;;5032244;28;20370;-66
2022/01/15 07:06:26;;;;;;;21.55;8.48;;;5.70;98.60;;;;;;5034525;28;20053;-66
2022/01/15 07:08:52;;;;;;;24.65;9.70;;;5.70;98.60;;;;;;5019782;28;20425;-66
2022/01/15 07:11:17;;;;;;;24.58;9.63;;;5.60;98.50;;;;;;5014286;28;20121;-67
2022/01/15 07:13:43;;;;;;;30.13;8.68;;;5.60;98.40;;;;;;5021114;28;20022;-66
2022/01/15 07:16:08;;;;;;;25.65;9.55;;;5.60;98.50;;;;;;5013908;28;20033;-65
2022/01/15 07:18:34;;;;;;;25.95;9.43;;;5.60;98.50;;;;;;5023552;28;20551;-65
2022/01/15 07:20:59;;;;;;;32.08;10.65;;;5.50;98.50;;;;;;5033930;28;20032;-65
2022/01/15 07:23:25;;;;;;;23.13;9.38;;;5.50;98.50;;;;;;5031260;28;20053;-66
2022/01/15 07:25:50;;;;;;;26.98;9.75;;;5.50;98.50;;;;;;5032259;28;20469;-65
2022/01/15 07:28:18;;;;;;;31.02;9.85;;;5.50;98.50;;;;;;5023899;28;20032;-66
2022/01/15 07:30:44;;;;;;;24.63;9.77;;;5.50;98.50;;;;;;5032579;28;20542;-66
2022/01/15 07:33:09;;;;;;;24.35;10.05;;;5.50;98.50;;;;;;5027155;28;20105;-66
2022/01/15 07:35:35;;;;;;;28.48;10.30;;;5.50;98.50;;;;;;5032949;28;20578;-66
2022/01/15 07:38:00;;;;;;;23.85;9.23;;;5.50;98.60;;;;;;5027374;28;20100;-66
2022/01/15 07:40:26;;;;;;;24.02;9.63;;;5.60;98.60;;;;;;5015117;28;20520;-65
2022/01/15 07:42:51;;;;;;;24.13;10.68;;;5.50;98.60;;;;;;5025251;28;20048;-65
2022/01/15 07:45:17;;;;;;;21.98;9.95;;;5.50;98.50;;;;;;5029291;28;20362;-66
2022/01/15 07:47:44;;;;;;;30.85;10.90;;;5.60;98.60;;;;;;5017724;28;20025;-65
2022/01/15 07:50:12;;;;;;;25.77;10.80;;;5.60;98.60;;;;;;5031995;28;20099;-65
2022/01/15 07:52:38;;;;;;;31.10;10.40;;;5.60;98.60;;;;;;5021837;28;20037;-64
2022/01/15 07:55:05;;;;;;;33.25;10.38;;;5.60;98.60;;;;;;5021577;28;20029;-65
2022/01/15 07:57:31;;;;;;;26.23;10.45;;;5.60;98.50;;;;;;5022193;28;20026;-63
2022/01/15 07:59:56;;;;;;;24.73;9.30;;;5.60;98.60;;;;;;5026101;28;20542;-64
2022/01/15 08:02:22;;;;;;;28.23;10.30;;;5.60;98.60;;;;;;5017173;28;20041;-63
2022/01/15 08:04:47;;;;;;;26.35;9.90;;;5.60;98.60;;;;;;5027719;28;20045;-63
2022/01/15 08:07:13;;;;;;;27.90;10.57;;;5.70;98.50;;;;;;5023954;28;20036;-62
2022/01/15 08:09:39;;;;;;;31.25;10.50;;;5.60;98.50;;;;;;5032651;28;20030;-63
2022/01/15 08:12:05;;;;;;;32.10;11.38;;;5.60;98.50;;;;;;5031508;28;20147;-63
2022/01/15 08:14:31;;;;;;;31.83;10.05;;;5.70;98.50;;;;;;5030363;28;20029;-63
2022/01/15 08:16:58;;;;;;;24.17;8.85;;;5.70;98.70;;;;;;5031567;28;20014;-63
2022/01/15 08:19:23;;;;;;;20.00;8.48;;;5.70;98.40;;;;;;5030950;28;20354;-63
2022/01/15 08:21:49;;;;;;;24.75;9.10;;;5.80;98.30;;;;;;5032185;28;20017;-63
2022/01/15 08:24:14;;;;;;;24.17;8.35;;;5.80;98.30;;;;;;5029975;28;20038;-62
2022/01/15 08:26:40;;;;;;;17.90;6.63;;;5.80;98.20;;;;;;5016991;28;20461;-63
2022/01/15 08:29:05;;;;;;;18.23;6.22;;;5.80;98.20;;;;;;5025311;28;20052;-63
2022/01/15 08:31:31;;;;;;;18.83;5.78;;;5.80;98.10;;;;;;5025537;28;20530;-64
2022/01/15 08:33:57;;;;;;;14.20;5.78;;;5.80;98.10;;;;;;5030466;28;20396;-64
2022/01/15 08:36:22;;;;;;;15.43;5.70;;;5.80;98.10;;;;;;5019556;28;20025;-63
2022/01/15 08:38:48;;;;;;;15.55;5.95;;;5.80;98.00;;;;;;5024334;28;20112;-64
2022/01/15 08:41:14;;;;;;;17.42;5.65;;;5.70;98.00;;;;;;5017161;28;20033;-63
2022/01/15 08:43:41;;;;;;;17.25;6.78;;;5.80;98.00;;;;;;5022819;28;20030;-65
2022/01/15 08:46:07;;;;;;;18.42;7.50;;;5.80;98.00;;;;;;5025757;28;20103;-62
2022/01/15 08:48:32;;;;;;;16.73;6.88;;;5.70;98.10;;;;;;5031780;28;20057;-63
2022/01/15 08:50:58;;;;;;;20.15;6.60;;;5.70;98.10;;;;;;5029636;28;20071;-63
2022/01/15 08:53:24;;;;;;;16.20;6.47;;;5.70;98.10;;;;;;5012553;28;20022;-64
2022/01/15 08:55:49;;;;;;;16.38;7.10;;;5.70;98.10;;;;;;5019340;28;20529;-63
2022/01/15 08:58:15;;;;;;;20.83;7.30;;;5.70;98.30;;;;;;5016914;28;20064;-64
2022/01/15 09:00:41;;;;;;;33.75;8.18;;;5.70;98.20;;;;;;5011108;28;20049;-64
2022/01/15 09:03:07;;;;;;;35.58;8.30;;;5.70;98.10;;;;;;5020649;28;20038;-64
2022/01/15 09:05:34;;;;;;;23.60;7.05;;;5.60;98.20;;;;;;5017048;28;20021;-63
2022/01/15 09:08:01;;;;;;;22.23;7.00;;;5.70;98.10;;;;;;5027487;28;20052;-63
2022/01/15 09:10:26;;;;;;;22.13;7.88;;;5.70;98.20;;;;;;5030334;28;20545;-61
2022/01/15 09:12:52;;;;;;;23.75;8.00;;;5.60;98.10;;;;;;5028713;28;20160;-61
2022/01/15 09:15:18;;;;;;;22.05;8.52;;;5.60;98.10;;;;;;5031005;28;20052;-62
2022/01/15 09:17:44;;;;;;;16.83;7.60;;;5.60;98.20;;;;;;5025538;28;20021;-62
2022/01/15 09:20:10;;;;;;;26.25;8.63;;;5.60;98.20;;;;;;5024875;28;20395;-62
2022/01/15 09:22:36;;;;;;;26.25;9.38;;;5.60;98.30;;;;;;5026749;28;20412;-61
2022/01/15 09:25:03;;;;;;;26.30;10.07;;;5.60;98.30;;;;;;5028936;28;20028;-62
2022/01/15 09:30:13;;;;;;;28.27;9.03;;;5.60;98.50;;;;;;5018976;28;20116;-62
2022/01/15 09:32:44;;;;;;;29.70;9.48;;;5.70;98.40;;;;;;5027991;28;20025;-62
2022/01/15 09:35:11;;;;;;;28.88;9.88;;;5.70;98.30;;;;;;5012469;28;20481;-62
2022/01/15 09:37:37;;;;;;;29.98;10.73;;;5.80;98.30;;;;;;5021093;28;20025;-62
2022/01/15 09:40:04;;;;;;;28.20;10.48;;;5.70;98.30;;;;;;5011449;28;20473;-62
2022/01/15 09:42:29;;;;;;;22.85;10.30;;;5.80;98.30;;;;;;5026071;28;20452;-62
2022/01/15 09:44:55;;;;;;;32.83;11.77;;;5.80;98.30;;;;;;5030006;28;20136;-62
2022/01/15 09:47:22;;;;;;;23.13;11.20;;;5.80;98.30;;;;;;5018431;28;20436;-62
2022/01/15 09:49:48;;;;;;;23.80;10.30;;;5.80;98.30;;;;;;5024751;28;20080;-62
2022/01/15 09:52:16;;;;;;;25.23;9.63;;;5.90;98.20;;;;;;5015346;28;20021;-62
2022/01/15 09:54:42;;;;;;;26.98;9.32;;;5.90;98.20;;;;;;5021951;28;20756;-62
2022/01/15 09:57:08;;;;;;;22.17;9.90;;;5.90;98.20;;;;;;5022496;28;20040;-62
2022/01/15 09:59:33;;;;;;;23.42;9.43;;;6.00;98.30;;;;;;5028827;28;20115;-61
2022/01/15 10:02:02;;;;;;;25.85;10.73;;;6.00;98.20;;;;;;5030551;28;20116;-62
2022/01/15 10:04:32;;;;;;;23.88;10.30;;;6.10;98.20;;;;;;5027933;28;20488;-62
2022/01/15 10:07:12;;;;;;;26.40;9.23;;;6.10;98.20;;;;;;5019293;28;20033;-62
2022/01/15 10:09:39;;;;;;;24.60;7.97;;;6.20;98.10;;;;;;5030518;28;20037;-62
2022/01/15 10:12:06;;;;;;;21.15;8.43;;;6.20;98.00;;;;;;5018924;28;20634;-61
2022/01/15 10:14:42;;;;;;;28.48;10.23;;;6.20;97.90;;;;;;5011360;28;20109;-62
2022/01/15 10:17:24;;;;;;;26.67;10.00;;;6.20;97.80;;;;;;5015719;28;20537;-61
2022/01/15 10:19:50;;;;;;;21.90;8.00;;;6.30;97.80;;;;;;5018767;28;20426;-61
2022/01/15 10:22:21;;;;;;;30.50;8.57;;;6.40;97.80;;;;;;5014189;28;20034;-62
2022/01/15 10:25:11;;;;;;;29.65;8.73;;;6.40;97.70;;;;;;5023210;28;20080;-63
2022/01/15 10:27:39;;;;;;;28.77;9.20;;;6.40;97.60;;;;;;5013691;28;20041;-63
2022/01/15 10:30:24;;;;;;;22.55;9.32;;;6.50;97.50;;;;;;5021622;28;20064;-62
2022/01/15 10:32:57;;;;;;;41.03;11.40;;;6.50;97.50;;;;;;5028169;28;20188;-62
2022/01/15 10:35:24;;;;;;;27.38;11.30;;;6.60;97.50;;;;;;5027086;28;20091;-62
2022/01/15 10:37:58;;;;;;;28.15;11.07;;;6.60;97.40;;;;;;5026427;28;20079;-63
2022/01/15 10:40:27;;;;;;;36.72;12.98;;;6.70;97.30;;;;;;5022160;28;20048;-63
2022/01/15 10:42:58;;;;;;;41.38;13.52;;;6.70;97.20;;;;;;5028305;28;20496;-62
2022/01/15 10:45:27;;;;;;;33.00;13.10;;;6.80;97.20;;;;;;5029754;28;20036;-62
2022/01/15 10:47:55;;;;;;;35.85;11.73;;;6.80;97.10;;;;;;5020292;28;20117;-62
2022/01/15 10:50:28;;;;;;;36.92;12.50;;;6.80;97.10;;;;;;5020089;28;20025;-62
2022/01/15 10:52:55;;;;;;;32.42;12.68;;;6.80;97.20;;;;;;5023781;28;20112;-62
2022/01/15 10:55:29;;;;;;;35.80;12.98;;;6.70;97.20;;;;;;5027286;28;20026;-63
2022/01/15 10:57:58;;;;;;;30.10;11.68;;;6.80;97.10;;;;;;5027812;28;20029;-63
2022/01/15 11:00:40;;;;;;;27.95;10.82;;;6.80;97.00;;;;;;5029834;28;20073;-63
2022/01/15 11:03:09;;;;;;;26.92;11.30;;;6.90;96.90;;;;;;5016852;28;20049;-63
2022/01/15 11:05:39;;;;;;;47.13;12.15;;;7.00;96.90;;;;;;5029861;28;20026;-63
2022/01/15 11:08:18;;;;;;;26.90;12.48;;;7.00;96.80;;;;;;5016333;28;20173;-63
2022/01/15 11:10:47;;;;;;;27.95;11.57;;;7.00;96.80;;;;;;5010245;28;20048;-63
2022/01/15 11:13:15;;;;;;;32.72;11.57;;;7.00;96.90;;;;;;5021145;28;20021;-64
2022/01/15 11:15:44;;;;;;;25.55;11.55;;;7.10;96.60;;;;;;5009918;28;20022;-62
2022/01/15 11:18:39;;;;;;;26.75;11.25;;;7.10;96.60;;;;;;5022143;28;20111;-63
2022/01/15 11:21:11;;;;;;;25.17;10.45;;;7.10;96.50;;;;;;5014469;28;20088;-64
2022/01/15 11:23:39;;;;;;;29.35;11.48;;;7.00;96.50;;;;;;5022227;28;20041;-64
2022/01/15 11:26:08;;;;;;;30.77;11.48;;;7.10;96.50;;;;;;5011986;28;20650;-64
2022/01/15 11:28:34;;;;;;;22.98;10.52;;;7.10;96.40;;;;;;5027573;28;20034;-64
2022/01/15 11:31:10;;;;;;;27.85;10.27;;;7.00;96.40;;;;;;5027985;28;20024;-63
2022/01/15 11:33:39;;;;;;;24.30;11.13;;;7.00;96.40;;;;;;5010424;28;20045;-64
2022/01/15 11:36:06;;;;;;;26.33;10.50;;;7.10;96.40;;;;;;5011653;28;20091;-65
2022/01/15 11:38:50;;;;;;;28.38;11.60;;;7.10;96.30;;;;;;5028538;28;20036;-65
2022/01/15 11:41:25;;;;;;;25.08;10.85;;;7.10;96.20;;;;;;5028777;28;20029;-65
2022/01/15 11:43:51;;;;;;;;;;;7.10;96.20;;;;;;5024080;28;20029;-66
2022/01/15 11:46:25;;;;;;;25.35;9.50;;;7.10;96.30;;;;;;5018082;28;19924;-64
2022/01/15 11:48:51;;;;;;;27.92;9.40;;;7.10;96.20;;;;;;5019763;28;20033;-65
2022/01/15 11:51:17;;;;;;;21.50;8.63;;;7.10;96.10;;;;;;5015970;28;20393;-65
2022/01/15 11:53:47;;;;;;;22.83;9.30;;;7.20;96.10;;;;;;5017699;28;20029;-64
2022/01/15 11:56:36;;;;;;;26.92;9.52;;;7.10;96.00;;;;;;5033139;28;20030;-64
2022/01/15 11:59:27;;;;;;;21.75;8.65;;;7.10;96.00;;;;;;5032264;28;20033;-65
2022/01/15 12:01:54;;;;;;;18.50;7.72;;;7.10;95.90;;;;;;5014030;28;20388;-65
2022/01/15 12:04:26;;;;;;;24.58;8.32;;;7.10;95.90;;;;;;5036525;28;20379;-66
2022/01/15 12:07:00;;;;;;;22.70;9.13;;;7.10;95.90;;;;;;5033989;28;20493;-65
2022/01/15 12:09:39;;;;;;;21.73;9.02;;;7.10;95.90;;;;;;5042487;28;20063;-66
2022/01/15 12:12:17;;;;;;;22.70;12.15;;;7.10;95.80;;;;;;5038419;28;20574;-65
2022/01/15 12:14:51;;;;;;;26.77;8.75;;;7.10;95.80;;;;;;5030884;28;20036;-64
2022/01/15 12:17:22;;;;;;;21.63;8.68;;;7.10;95.80;;;;;;5013838;28;20027;-65
2022/01/15 12:19:48;;;;;;;20.67;8.30;;;7.10;95.60;;;;;;5013682;28;20032;-65
2022/01/15 12:22:34;;;;;;;21.27;8.07;;;7.00;95.60;;;;;;5051647;28;20029;-64
2022/01/15 12:25:05;;;;;;;25.45;8.77;;;7.10;95.60;;;;;;5022761;28;20112;-64
2022/01/15 12:27:32;;;;;;;17.70;8.48;;;7.00;95.60;;;;;;5020670;28;20029;-64
2022/01/15 12:30:00;;;;;;;21.35;8.25;;;7.00;95.70;;;;;;5023180;28;20018;-65
2022/01/15 12:32:28;;;;;;;21.90;8.48;;;7.10;95.50;;;;;;5014844;28;20030;-65
2022/01/15 12:34:54;;;;;;;33.10;10.43;;;7.00;95.50;;;;;;5019780;28;20021;-65
2022/01/15 12:37:20;;;;;;;26.02;10.43;;;7.00;95.60;;;;;;5027666;28;20041;-64
2022/01/15 12:39:45;;;;;;;23.75;9.25;;;7.00;95.60;;;;;;5015390;28;20096;-64
2022/01/15 12:42:12;;;;;;;34.35;9.77;;;7.00;95.50;;;;;;5028125;28;20362;-64
2022/01/15 12:44:47;;;;;;;23.95;9.30;;;7.00;95.70;;;;;;5022083;28;20050;-65
2022/01/15 12:47:14;;;;;;;20.63;8.38;;;7.10;95.40;;;;;;5016314;28;20026;-64
2022/01/15 12:49:45;;;;;;;29.50;10.82;;;7.00;95.40;;;;;;5014381;28;20065;-65
2022/01/15 12:52:14;;;;;;;22.92;9.95;;;7.00;95.40;;;;;;5013025;28;20033;-64
2022/01/15 12:54:40;;;;;;;23.42;8.98;;;7.00;95.40;;;;;;5029000;28;20108;-65
2022/01/15 12:57:05;;;;;;;29.25;9.73;;;7.00;95.50;;;;;;5028970;28;20037;-65
2022/01/15 12:59:33;;;;;;;26.80;10.40;;;7.00;95.50;;;;;;5012370;28;20416;-64
2022/01/15 13:02:01;;;;;;;27.77;9.80;;;6.90;95.60;;;;;;5012515;28;20552;-65
2022/01/15 13:04:26;;;;;;;20.63;9.10;;;7.00;95.70;;;;;;5012360;28;20038;-64
2022/01/15 13:07:01;;;;;;;27.63;9.48;;;7.00;95.60;;;;;;5014685;28;20543;-65
2022/01/15 13:09:41;;;;;;;28.55;9.90;;;7.00;95.50;;;;;;5020181;28;20046;-65